Time;durP1;ratioP1;P1;durP2;ratioP2;P2;SDS_P1;SDS_P2;PMS_P1;PMS_P2;Temp;Humidity;BMP_temperature;BMP_pressure;BME280_temperature;BME280_humidity;BME280_pressure;Samples;Min_cycle;Max_cycle;Signal;HPM_P1;HPM_P2
2022/05/27 00:01:38;;;;;;;9.95;3.47;;;18.90;99.90;;;;;;5049958;28;20438;-76
2022/05/27 00:04:04;;;;;;;10.07;4.70;;;18.70;99.90;;;;;;5033350;28;20076;-78
2022/05/27 00:06:31;;;;;;;11.80;3.40;;;18.60;99.90;;;;;;5033254;28;20045;-76
2022/05/27 00:08:57;;;;;;;13.57;3.53;;;18.20;99.90;;;;;;5049440;28;20450;-76
2022/05/27 00:11:23;;;;;;;14.82;3.40;;;18.50;99.90;;;;;;5050077;28;20063;-77
2022/05/27 00:13:51;;;;;;;11.07;3.30;;;18.40;99.90;;;;;;5049377;28;20048;-78
2022/05/27 00:16:16;;;;;;;15.15;3.88;;;18.20;99.90;;;;;;5049771;28;20037;-75
2022/05/27 00:18:42;;;;;;;9.98;3.25;;;17.50;99.90;;;;;;5016185;28;20044;-74
2022/05/27 00:21:08;;;;;;;11.00;3.40;;;17.50;99.90;;;;;;5033214;28;20052;-75
2022/05/27 00:23:37;;;;;;;11.18;2.97;;;17.80;99.90;;;;;;5049534;28;20045;-78
2022/05/27 00:26:03;;;;;;;8.88;3.00;;;17.40;99.90;;;;;;5032926;28;20103;-75
2022/05/27 00:28:28;;;;;;;10.82;3.58;;;17.30;99.90;;;;;;5049674;28;20080;-74
2022/05/27 00:30:54;;;;;;;9.90;3.25;;;17.80;99.90;;;;;;5049336;28;20150;-77
2022/05/27 00:33:20;;;;;;;15.23;3.00;;;17.30;99.90;;;;;;5033043;28;20041;-77
2022/05/27 00:35:46;;;;;;;10.00;3.33;;;17.10;99.90;;;;;;5016645;28;20055;-76
2022/05/27 00:38:12;;;;;;;11.40;3.22;;;17.30;99.90;;;;;;5049667;28;20111;-76
2022/05/27 00:40:41;;;;;;;10.88;3.40;;;17.00;99.90;;;;;;5033282;28;20135;-75
2022/05/27 00:43:07;;;;;;;15.57;3.60;;;17.00;99.90;;;;;;5053264;28;20396;-73
2022/05/27 00:45:35;;;;;;;9.20;3.30;;;17.10;99.90;;;;;;5036886;28;20045;-73
2022/05/27 00:48:06;;;;;;;13.45;3.45;;;16.80;99.90;;;;;;5020246;28;20048;-77
2022/05/27 00:50:36;;;;;;;11.80;3.45;;;17.30;99.90;;;;;;5053263;28;20033;-78
2022/05/27 00:53:04;;;;;;;13.95;3.33;;;17.10;99.90;;;;;;5052974;28;20043;-73
2022/05/27 00:55:34;;;;;;;17.95;2.97;;;17.10;99.90;;;;;;5053391;28;20041;-73
2022/05/27 00:58:08;;;;;;;10.98;2.95;;;16.70;99.90;;;;;;5036331;28;20080;-77
2022/05/27 01:00:34;;;;;;;12.50;3.28;;;17.10;99.90;;;;;;5053101;28;20045;-74
2022/05/27 01:03:01;;;;;;;10.15;2.90;;;16.90;99.90;;;;;;5052611;28;20048;-74
2022/05/27 01:05:26;;;;;;;13.38;3.08;;;16.80;99.90;;;;;;5053167;28;20069;-75
2022/05/27 01:07:58;;;;;;;11.43;3.13;;;16.50;99.90;;;;;;5019527;28;20079;-78
2022/05/27 01:10:26;;;;;;;11.43;2.88;;;16.40;99.90;;;;;;5036241;28;20061;-75
2022/05/27 01:13:01;;;;;;;16.17;3.03;;;16.80;99.90;;;;;;5035832;28;20045;-75
2022/05/27 01:15:44;;;;;;;15.50;3.88;;;16.80;99.90;;;;;;5036233;28;20120;-75
2022/05/27 01:18:22;;;;;;;11.52;2.55;;;16.30;99.90;;;;;;5052840;28;20045;-78
2022/05/27 01:21:01;;;;;;;8.68;2.65;;;16.40;99.90;;;;;;5052610;28;20094;-73
2022/05/27 01:23:56;;;;;;;9.50;3.10;;;16.30;99.90;;;;;;5036152;28;20059;-74
2022/05/27 01:26:40;;;;;;;12.47;3.10;;;16.50;99.90;;;;;;5049139;28;20405;-77
2022/05/27 01:29:31;;;;;;;10.95;2.60;;;16.10;99.90;;;;;;5035660;28;20045;-75
2022/05/27 01:32:25;;;;;;;13.23;3.22;;;16.10;99.90;;;;;;5035339;28;20102;-75
2022/05/27 01:35:03;;;;;;;16.07;3.47;;;16.00;99.90;;;;;;5050581;28;20056;-75
2022/05/27 01:37:43;;;;;;;11.18;2.97;;;16.30;99.90;;;;;;5036021;28;20049;-77
2022/05/27 01:40:12;;;;;;;10.93;2.55;;;16.30;99.90;;;;;;5052409;28;20049;-75
2022/05/27 01:42:43;;;;;;;13.15;2.78;;;15.90;99.90;;;;;;5035864;28;20080;-73
2022/05/27 01:45:27;;;;;;;12.73;3.08;;;16.10;99.90;;;;;;5051927;28;20102;-74
2022/05/27 01:48:03;;;;;;;8.98;2.85;;;15.70;99.90;;;;;;5051947;28;20087;-74
2022/05/27 01:50:43;;;;;;;10.65;2.90;;;16.00;99.90;;;;;;5051830;28;20045;-75
2022/05/27 01:53:23;;;;;;;10.20;2.85;;;15.60;99.90;;;;;;5033606;28;20047;-77
2022/05/27 01:56:02;;;;;;;14.45;2.53;;;15.90;99.90;;;;;;5034709;28;20044;-76
2022/05/27 01:58:41;;;;;;;11.85;2.67;;;15.50;99.90;;;;;;5051602;28;20610;-72
2022/05/27 02:01:14;;;;;;;9.10;2.53;;;15.70;99.90;;;;;;5050951;28;20508;-74
2022/05/27 02:04:08;;;;;;;10.68;2.55;;;15.60;99.90;;;;;;5034950;28;20060;-73
2022/05/27 02:06:52;;;;;;;11.15;2.85;;;15.50;99.90;;;;;;5029920;28;20507;-75
2022/05/27 02:09:54;;;;;;;9.82;2.67;;;15.30;99.90;;;;;;5051440;28;20075;-74
2022/05/27 02:12:30;;;;;;;10.32;2.60;;;15.40;99.90;;;;;;5030189;28;20091;-74
2022/05/27 02:15:17;;;;;;;8.90;1.98;;;15.10;99.90;;;;;;5033890;28;20138;-74
2022/05/27 02:17:56;;;;;;;12.77;2.47;;;15.30;99.90;;;;;;5034819;28;20095;-72
2022/05/27 02:20:30;;;;;;;8.20;2.40;;;14.80;99.90;;;;;;5051791;28;20371;-74
2022/05/27 02:23:09;;;;;;;8.23;2.20;;;14.70;99.90;;;;;;5034491;28;20074;-73
2022/05/27 02:25:43;;;;;;;10.95;2.42;;;14.70;99.90;;;;;;5034776;28;20045;-75
2022/05/27 02:28:12;;;;;;;8.88;2.20;;;14.30;99.90;;;;;;5051255;28;20203;-75
2022/05/27 02:30:42;;;;;;;9.40;2.60;;;14.50;99.90;;;;;;5051592;28;20520;-72
2022/05/27 02:36:00;;;;;;;7.55;2.42;;;14.20;99.90;;;;;;5050935;28;20155;-76
2022/05/27 02:38:27;;;;;;;10.13;2.72;;;14.10;99.90;;;;;;5050998;28;20040;-73
2022/05/27 02:41:15;;;;;;;11.43;2.40;;;14.10;99.90;;;;;;5034340;28;20041;-73
2022/05/27 02:43:51;;;;;;;9.82;2.85;;;14.00;99.90;;;;;;5051107;28;20178;-75
2022/05/27 02:46:27;;;;;;;10.25;2.70;;;14.20;99.90;;;;;;5051466;28;20033;-77
2022/05/27 02:49:23;;;;;;;10.75;3.00;;;13.90;99.90;;;;;;5050669;28;20048;-75
2022/05/27 02:52:02;;;;;;;6.97;1.90;;;14.00;99.90;;;;;;5050930;28;20049;-76
2022/05/27 02:54:43;;;;;;;7.28;2.10;;;14.00;99.90;;;;;;5051114;28;20049;-74
2022/05/27 02:57:41;;;;;;;9.95;2.20;;;13.80;99.90;;;;;;5033884;28;20075;-74
2022/05/27 03:00:11;;;;;;;7.93;2.15;;;13.80;99.90;;;;;;5036704;28;20451;-74
2022/05/27 03:02:37;;;;;;;11.32;2.28;;;13.60;99.90;;;;;;5051053;28;20083;-76
2022/05/27 03:05:04;;;;;;;6.53;2.00;;;13.50;99.90;;;;;;5033652;28;20084;-73
2022/05/27 03:07:58;;;;;;;11.45;2.40;;;13.60;99.90;;;;;;5050732;28;20072;-72
2022/05/27 03:10:52;;;;;;;9.48;2.40;;;13.50;99.90;;;;;;5050424;28;20794;-74
2022/05/27 03:13:39;;;;;;;12.18;2.40;;;13.30;99.90;;;;;;5050395;28;20049;-74
2022/05/27 03:16:27;;;;;;;10.95;2.28;;;13.20;99.90;;;;;;5033714;28;20436;-74
2022/05/27 03:19:16;;;;;;;9.48;2.75;;;13.30;99.90;;;;;;5050519;28;20389;-73
2022/05/27 03:22:11;;;;;;;7.25;2.22;;;13.20;99.90;;;;;;5050455;28;20048;-74
2022/05/27 03:24:57;;;;;;;8.27;2.17;;;13.00;99.90;;;;;;5033849;28;20484;-72
2022/05/27 03:27:42;;;;;;;14.32;2.90;;;13.10;99.90;;;;;;5050175;28;20154;-77
2022/05/27 03:30:40;;;;;;;8.68;1.92;;;13.10;99.90;;;;;;5049835;28;20055;-74
2022/05/27 03:33:28;;;;;;;8.70;2.35;;;12.90;99.90;;;;;;5049917;28;20114;-74
2022/05/27 03:36:01;;;;;;;7.20;2.50;;;13.00;99.90;;;;;;5044330;28;20049;-74
2022/05/27 03:39:20;;;;;;;10.95;2.40;;;13.00;99.90;;;;;;5033858;28;20380;-75
2022/05/27 03:42:06;;;;;;;8.10;2.10;;;13.00;99.90;;;;;;5033609;28;20135;-74
2022/05/27 03:44:32;;;;;;;9.60;2.50;;;13.00;99.90;;;;;;5050229;28;20362;-74
2022/05/27 03:46:59;;;;;;;9.63;2.00;;;13.10;99.90;;;;;;5032987;28;20049;-75
2022/05/27 03:49:26;;;;;;;11.25;2.90;;;13.00;99.90;;;;;;5049982;28;20045;-74
2022/05/27 03:52:06;;;;;;;9.63;2.83;;;13.10;99.90;;;;;;5049861;28;20432;-74
2022/05/27 03:54:32;;;;;;;9.70;2.50;;;13.10;99.90;;;;;;5033328;28;20043;-74
2022/05/27 03:56:59;;;;;;;11.10;2.60;;;13.30;99.90;;;;;;5033218;28;20107;-75
2022/05/27 03:59:26;;;;;;;8.55;2.63;;;13.10;99.90;;;;;;5050109;28;20045;-73
2022/05/27 04:01:55;;;;;;;9.43;2.50;;;13.20;99.90;;;;;;5049147;28;20079;-75
2022/05/27 04:04:24;;;;;;;7.75;2.00;;;13.20;99.90;;;;;;5049717;28;20076;-75
2022/05/27 04:06:50;;;;;;;8.77;2.60;;;13.30;99.90;;;;;;5049493;28;20493;-75
2022/05/27 04:09:18;;;;;;;11.88;2.80;;;13.30;99.90;;;;;;5049660;28;20130;-77
2022/05/27 04:11:44;;;;;;;12.07;2.80;;;13.40;99.90;;;;;;5033485;28;20417;-76
2022/05/27 04:14:10;;;;;;;9.35;2.45;;;13.20;99.90;;;;;;5049040;28;20045;-77
2022/05/27 04:16:36;;;;;;;8.85;2.55;;;13.50;99.90;;;;;;5034317;28;20464;-78
2022/05/27 04:19:03;;;;;;;10.40;2.95;;;13.50;99.90;;;;;;5053471;28;20381;-74
2022/05/27 04:21:28;;;;;;;11.77;2.55;;;13.40;99.90;;;;;;5020425;28;20041;-75
2022/05/27 04:23:54;;;;;;;8.77;2.38;;;13.30;99.90;;;;;;5036507;28;20128;-75
2022/05/27 04:26:21;;;;;;;12.90;2.40;;;13.50;99.90;;;;;;5037050;28;20397;-75
2022/05/27 04:28:46;;;;;;;9.20;2.25;;;13.50;99.90;;;;;;5053730;28;20040;-74
2022/05/27 04:31:12;;;;;;;8.05;2.70;;;13.30;99.90;;;;;;5053103;28;20752;-74
2022/05/27 04:33:38;;;;;;;11.23;2.33;;;13.40;99.90;;;;;;5053451;28;20076;-72
2022/05/27 04:36:04;;;;;;;10.70;3.08;;;13.30;99.90;;;;;;5052770;28;20562;-74
2022/05/27 04:38:31;;;;;;;9.70;2.47;;;13.40;99.90;;;;;;5053032;28;20128;-77
2022/05/27 04:40:57;;;;;;;10.20;3.05;;;13.20;99.90;;;;;;5052577;28;20041;-73
2022/05/27 04:43:23;;;;;;;9.45;2.20;;;13.10;99.90;;;;;;5035797;28;20045;-77
2022/05/27 04:45:49;;;;;;;10.02;2.35;;;13.30;99.90;;;;;;5019150;28;20563;-77
2022/05/27 04:48:17;;;;;;;12.20;2.55;;;13.20;99.90;;;;;;5019354;28;20037;-74
2022/05/27 04:50:43;;;;;;;9.18;3.05;;;13.30;99.90;;;;;;5053191;28;20094;-76
2022/05/27 04:53:10;;;;;;;10.70;2.92;;;13.40;99.90;;;;;;5052844;28;20041;-75
2022/05/27 04:55:37;;;;;;;11.00;2.13;;;13.60;99.90;;;;;;5053456;28;20033;-74
2022/05/27 04:58:04;;;;;;;12.93;3.05;;;13.60;99.90;;;;;;5052973;28;20127;-74
2022/05/27 05:00:34;;;;;;;11.88;2.70;;;13.70;99.90;;;;;;5036511;28;20051;-78
2022/05/27 05:03:00;;;;;;;12.13;3.42;;;13.60;99.90;;;;;;5035983;28;20033;-76
2022/05/27 05:05:28;;;;;;;10.25;2.60;;;13.70;99.90;;;;;;5036723;28;20044;-76
2022/05/27 05:07:58;;;;;;;12.60;2.63;;;13.70;99.90;;;;;;5036145;28;20055;-75
2022/05/27 05:10:24;;;;;;;13.82;2.88;;;13.80;99.90;;;;;;5052852;28;20779;-73
2022/05/27 05:12:51;;;;;;;10.70;2.95;;;13.70;99.90;;;;;;5019913;28;20128;-74
2022/05/27 05:15:19;;;;;;;12.07;2.53;;;13.60;99.90;;;;;;5019648;28;20041;-75
2022/05/27 05:17:45;;;;;;;11.02;2.50;;;13.50;99.90;;;;;;5036164;28;20033;-73
2022/05/27 05:20:13;;;;;;;5.80;2.60;;;13.40;99.90;;;;;;5052420;28;20469;-76
2022/05/27 05:22:39;;;;;;;7.15;2.22;;;13.30;99.90;;;;;;5052511;28;20036;-73
2022/05/27 05:25:06;;;;;;;7.25;2.20;;;13.20;99.90;;;;;;5018893;28;20464;-73
2022/05/27 05:27:33;;;;;;;11.07;3.55;;;13.10;99.90;;;;;;5052104;28;20029;-74
2022/05/27 05:29:59;;;;;;;10.95;2.50;;;13.20;99.90;;;;;;5034889;28;20037;-71
2022/05/27 05:32:25;;;;;;;7.53;2.70;;;13.20;99.90;;;;;;5019392;28;20028;-71
2022/05/27 05:34:50;;;;;;;10.88;3.30;;;13.10;99.90;;;;;;5035861;28;20069;-74
2022/05/27 05:37:16;;;;;;;8.60;2.45;;;13.20;99.90;;;;;;5018910;28;20496;-71
2022/05/27 05:39:42;;;;;;;8.50;2.55;;;13.20;99.90;;;;;;5019167;28;20428;-73
2022/05/27 05:42:08;;;;;;;10.05;2.60;;;13.10;99.90;;;;;;5051648;28;20405;-74
2022/05/27 05:44:35;;;;;;;10.57;2.33;;;13.10;99.90;;;;;;5035269;28;20045;-71
2022/05/27 05:47:02;;;;;;;10.10;2.88;;;13.10;99.90;;;;;;5018955;28;20045;-74
2022/05/27 05:49:28;;;;;;;8.82;2.40;;;13.10;99.90;;;;;;5051884;28;20072;-73
2022/05/27 05:51:56;;;;;;;9.63;3.03;;;13.20;99.90;;;;;;5052245;28;20492;-74
2022/05/27 05:54:23;;;;;;;10.05;2.47;;;13.20;99.90;;;;;;5035338;28;20044;-75
2022/05/27 05:56:50;;;;;;;12.10;2.42;;;13.20;99.90;;;;;;5035431;28;20060;-74
2022/05/27 05:59:17;;;;;;;11.63;2.50;;;13.30;99.90;;;;;;5035085;28;20052;-76
2022/05/27 06:01:43;;;;;;;11.07;2.67;;;13.30;99.90;;;;;;5035375;28;20164;-74
2022/05/27 06:04:09;;;;;;;10.82;2.83;;;13.30;99.90;;;;;;5034756;28;20139;-76
2022/05/27 06:06:36;;;;;;;9.43;2.17;;;13.40;99.90;;;;;;5035625;28;20127;-78
2022/05/27 06:09:03;;;;;;;13.00;2.90;;;13.40;99.90;;;;;;5051137;28;20085;-75
2022/05/27 06:11:29;;;;;;;14.23;2.85;;;13.60;99.90;;;;;;5051880;28;20424;-77
2022/05/27 06:13:55;;;;;;;12.07;2.78;;;13.50;99.90;;;;;;5034964;28;20040;-77
2022/05/27 06:16:20;;;;;;;10.25;2.53;;;13.60;99.90;;;;;;5034448;28;20382;-76
2022/05/27 06:18:47;;;;;;;8.63;2.42;;;13.70;99.90;;;;;;5018501;28;20433;-75
2022/05/27 06:21:13;;;;;;;10.75;2.92;;;13.60;99.90;;;;;;5018183;28;20045;-75
2022/05/27 06:23:38;;;;;;;13.32;3.35;;;13.70;99.90;;;;;;5051259;28;20040;-75
2022/05/27 06:26:10;;;;;;;11.63;3.13;;;13.70;99.90;;;;;;5034676;28;20044;-75
2022/05/27 06:34:23;;;;;;;15.95;2.75;;;13.50;99.90;;;;;;5050676;28;20175;-76
2022/05/27 06:37:10;;;;;;;11.65;2.55;;;13.60;99.90;;;;;;5051527;28;20557;-73
2022/05/27 06:39:37;;;;;;;8.57;2.42;;;13.70;99.90;;;;;;5050624;28;20044;-78
2022/05/27 06:42:04;;;;;;;13.73;2.85;;;13.70;99.90;;;;;;5034257;28;20124;-75
2022/05/27 06:44:30;;;;;;;11.30;2.85;;;14.10;99.90;;;;;;5050823;28;20045;-73
2022/05/27 06:46:56;;;;;;;10.70;2.38;;;13.90;99.90;;;;;;5017849;28;20363;-74
2022/05/27 06:49:22;;;;;;;12.10;2.35;;;13.90;99.90;;;;;;5034028;28;20083;-74
2022/05/27 06:51:48;;;;;;;11.25;2.33;;;13.70;99.90;;;;;;5034320;28;20052;-74
2022/05/27 06:54:15;;;;;;;6.65;1.90;;;13.90;99.90;;;;;;5050592;28;20049;-75
2022/05/27 06:56:43;;;;;;;9.52;2.55;;;13.90;99.90;;;;;;5034041;28;20500;-73
2022/05/27 06:59:09;;;;;;;8.75;2.00;;;13.70;99.90;;;;;;5050251;28;20044;-72
2022/05/27 07:01:35;;;;;;;8.85;3.28;;;13.80;99.90;;;;;;5050359;28;20041;-73
2022/05/27 07:04:02;;;;;;;14.27;3.08;;;14.00;99.90;;;;;;5050385;28;20114;-74
2022/05/27 07:06:35;;;;;;;5.53;2.15;;;14.40;99.90;;;;;;5033811;28;20037;-76
2022/05/27 07:09:03;;;;;;;11.30;2.85;;;13.90;99.90;;;;;;5050314;28;20064;-75
2022/05/27 07:11:29;;;;;;;10.90;2.60;;;13.40;99.90;;;;;;5033986;28;20041;-74
2022/05/27 07:13:54;;;;;;;17.23;2.33;;;13.70;99.90;;;;;;5034188;28;20075;-75
2022/05/27 07:16:20;;;;;;;9.65;2.13;;;13.70;99.90;;;;;;5050146;28;20044;-75
2022/05/27 07:18:46;;;;;;;10.18;2.22;;;13.80;99.90;;;;;;5033918;28;20049;-72
2022/05/27 07:21:13;;;;;;;7.85;2.50;;;13.90;99.90;;;;;;5017027;28;20555;-73
2022/05/27 07:23:39;;;;;;;9.35;2.33;;;13.90;99.90;;;;;;5033844;28;20500;-72
2022/05/27 07:26:05;;;;;;;10.52;2.50;;;14.00;99.90;;;;;;5049383;28;20029;-73
2022/05/27 07:28:31;;;;;;;12.00;2.85;;;14.00;99.90;;;;;;5033588;28;20119;-73
2022/05/27 07:31:01;;;;;;;12.48;2.50;;;14.10;99.90;;;;;;5050314;28;20040;-76
2022/05/27 07:33:27;;;;;;;9.57;2.38;;;14.20;99.90;;;;;;5049663;28;20087;-76
2022/05/27 07:35:52;;;;;;;9.45;2.22;;;14.20;99.90;;;;;;5016950;28;20077;-71
2022/05/27 07:38:18;;;;;;;11.18;2.03;;;14.60;99.90;;;;;;5049366;28;20196;-73
2022/05/27 07:40:44;;;;;;;9.82;2.38;;;14.70;99.90;;;;;;5049971;28;20056;-71
2022/05/27 07:43:11;;;;;;;9.68;2.08;;;14.90;99.90;;;;;;5032570;28;20481;-72
2022/05/27 07:45:40;;;;;;;12.98;2.53;;;14.70;99.90;;;;;;5049337;28;20045;-73
2022/05/27 07:48:06;;;;;;;11.02;2.17;;;14.50;99.90;;;;;;5032429;28;20040;-74
2022/05/27 07:50:33;;;;;;;10.05;2.33;;;14.20;99.90;;;;;;5049165;28;20037;-73
2022/05/27 07:52:59;;;;;;;11.02;2.83;;;14.50;99.90;;;;;;5016828;28;20037;-72
2022/05/27 07:55:24;;;;;;;12.95;2.70;;;14.40;99.90;;;;;;5032262;28;20041;-73
2022/05/27 07:57:50;;;;;;;10.30;2.38;;;14.60;99.90;;;;;;5049691;28;20432;-74
2022/05/27 08:00:20;;;;;;;10.65;2.17;;;14.60;99.90;;;;;;5032332;28;20036;-73
2022/05/27 08:02:46;;;;;;;9.30;2.00;;;14.40;99.90;;;;;;5032033;28;20045;-75
2022/05/27 08:05:18;;;;;;;10.73;2.33;;;14.20;99.90;;;;;;5048642;28;20052;-73
2022/05/27 08:07:44;;;;;;;6.15;2.35;;;14.00;99.90;;;;;;5049614;28;20052;-72
2022/05/27 08:10:12;;;;;;;7.65;2.25;;;14.10;99.90;;;;;;5031929;28;20056;-75
2022/05/27 08:12:39;;;;;;;12.40;2.45;;;14.20;99.90;;;;;;5032409;28;20041;-73
2022/05/27 08:15:05;;;;;;;8.60;2.10;;;14.50;99.90;;;;;;5049637;28;20267;-73
2022/05/27 08:17:31;;;;;;;10.23;3.33;;;14.70;99.90;;;;;;5016892;28;20151;-72
2022/05/27 08:19:57;;;;;;;12.18;3.05;;;14.90;99.90;;;;;;5033060;28;20131;-74
2022/05/27 08:22:22;;;;;;;9.88;2.42;;;14.80;99.90;;;;;;5049255;28;20128;-74
2022/05/27 08:24:48;;;;;;;7.70;2.60;;;14.70;99.90;;;;;;5032379;28;20473;-73
2022/05/27 08:27:16;;;;;;;11.40;2.22;;;15.00;99.90;;;;;;5032699;28;20064;-74
2022/05/27 08:29:42;;;;;;;12.43;3.00;;;14.80;99.90;;;;;;5032857;28;20041;-71
2022/05/27 08:32:08;;;;;;;8.35;2.38;;;15.00;99.90;;;;;;5032371;28;20048;-72
2022/05/27 08:40:38;;;;;;;10.77;2.38;;;15.20;99.90;;;;;;5035353;28;20730;-70
2022/05/27 08:43:12;;;;;;;10.65;2.85;;;14.70;99.90;;;;;;5016832;28;20084;-72
2022/05/27 08:45:57;;;;;;;;;;;15.00;99.90;;;;;;5049869;28;20069;-73
2022/05/27 08:48:26;;;;;;;10.10;1.98;;;14.80;99.90;;;;;;5048907;28;19920;-72
2022/05/27 08:50:57;;;;;;;8.32;2.28;;;14.40;99.90;;;;;;5049446;28;20524;-70
2022/05/27 08:53:41;;;;;;;10.98;2.20;;;14.80;99.90;;;;;;5049044;28;20091;-70
2022/05/27 08:59:34;;;;;;;11.27;2.35;;;14.90;99.90;;;;;;5049258;28;20065;-72
2022/05/27 09:02:29;;;;;;;11.55;2.42;;;14.70;99.90;;;;;;5032587;28;20056;-70
2022/05/27 09:05:06;;;;;;;11.50;2.50;;;15.40;99.90;;;;;;5036269;28;20047;-71
2022/05/27 09:07:51;;;;;;;14.18;2.67;;;14.90;99.90;;;;;;5045929;28;20041;-70
2022/05/27 09:10:24;;;;;;;12.85;2.60;;;14.50;99.90;;;;;;5031563;28;20061;-69
2022/05/27 09:13:22;;;;;;;6.70;2.05;;;14.90;99.90;;;;;;5031546;28;20385;-71
2022/05/27 09:15:56;;;;;;;12.80;2.97;;;14.70;99.90;;;;;;5031388;28;20090;-71
2022/05/27 09:18:47;;;;;;;11.95;2.40;;;14.10;99.90;;;;;;5031451;28;20041;-72
2022/05/27 09:21:18;;;;;;;13.77;2.72;;;14.70;99.90;;;;;;5031310;28;20124;-73
2022/05/27 09:24:21;;;;;;;11.38;2.60;;;14.90;99.90;;;;;;5031383;28;20045;-71
2022/05/27 09:27:09;;;;;;;8.68;2.72;;;14.50;99.90;;;;;;5031040;28;20046;-70
2022/05/27 09:29:57;;;;;;;11.07;2.47;;;14.80;99.90;;;;;;5031231;28;20037;-72
2022/05/27 09:32:35;;;;;;;11.75;2.17;;;15.60;99.90;;;;;;5031350;28;20508;-71
2022/05/27 09:35:11;;;;;;;13.88;3.03;;;15.10;99.90;;;;;;5031333;28;20042;-73
2022/05/27 09:37:44;;;;;;;10.27;2.10;;;15.10;99.90;;;;;;5031531;28;20392;-73
2022/05/27 09:40:16;;;;;;;14.27;2.30;;;15.50;99.90;;;;;;5031373;28;20382;-74
2022/05/27 09:43:01;;;;;;;9.63;2.10;;;15.80;99.90;;;;;;5014681;28;20401;-71
2022/05/27 09:45:29;;;;;;;11.50;2.15;;;16.00;99.90;;;;;;5030931;28;20132;-71
2022/05/27 09:48:04;;;;;;;6.85;2.17;;;15.90;99.90;;;;;;5013940;28;20042;-72
2022/05/27 09:50:47;;;;;;;10.00;2.78;;;15.40;99.90;;;;;;5014132;28;20045;-70
2022/05/27 09:53:17;;;;;;;13.35;2.55;;;15.10;99.90;;;;;;5013978;28;20543;-70
2022/05/27 09:55:54;;;;;;;8.85;2.40;;;16.20;99.90;;;;;;5030868;28;20038;-70
2022/05/27 09:58:26;;;;;;;9.27;2.80;;;16.40;99.90;;;;;;5030425;28;20099;-71
2022/05/27 10:00:52;;;;;;;5.15;2.05;;;15.70;99.90;;;;;;5030476;28;20037;-71
2022/05/27 10:03:21;;;;;;;11.02;2.50;;;16.10;99.90;;;;;;4997587;28;20050;-71
2022/05/27 10:05:52;;;;;;;8.25;2.38;;;16.30;99.90;;;;;;5030593;28;20389;-70
2022/05/27 10:08:29;;;;;;;9.98;2.40;;;15.80;99.90;;;;;;5030424;28;20398;-71
2022/05/27 10:11:19;;;;;;;10.70;2.20;;;15.60;99.90;;;;;;5013963;28;20041;-72
2022/05/27 10:13:47;;;;;;;13.35;2.90;;;16.10;99.90;;;;;;4998548;28;20056;-71
2022/05/27 10:16:24;;;;;;;9.65;2.88;;;16.90;99.90;;;;;;5014252;28;20398;-71
2022/05/27 10:19:13;;;;;;;12.20;2.60;;;16.90;99.90;;;;;;5013619;28;20041;-71
2022/05/27 10:21:59;;;;;;;11.55;2.30;;;16.30;99.90;;;;;;5030014;28;20091;-71
2022/05/27 10:24:30;;;;;;;11.57;2.42;;;16.70;99.90;;;;;;5029694;28;20052;-71
2022/05/27 10:27:17;;;;;;;13.00;2.50;;;16.20;99.90;;;;;;5029875;28;20120;-72
2022/05/27 10:30:06;;;;;;;10.48;2.92;;;16.20;99.90;;;;;;5028837;28;20180;-69
2022/05/27 10:32:38;;;;;;;13.98;3.40;;;15.40;99.90;;;;;;5029433;28;20048;-71
2022/05/27 10:35:26;;;;;;;9.30;2.60;;;15.90;99.90;;;;;;5029806;28;20048;-71
2022/05/27 10:37:52;;;;;;;8.65;2.10;;;15.90;99.90;;;;;;5020058;28;20147;-72
2022/05/27 10:40:23;;;;;;;9.52;2.20;;;15.70;99.90;;;;;;5013413;28;20184;-70
2022/05/27 10:43:01;;;;;;;12.95;2.83;;;15.40;99.90;;;;;;5029284;28;20052;-71
2022/05/27 10:45:42;;;;;;;9.90;2.30;;;16.30;99.90;;;;;;5029668;28;20057;-70
2022/05/27 10:48:19;;;;;;;9.95;2.22;;;16.60;99.90;;;;;;5030102;28;20087;-73
2022/05/27 10:51:08;;;;;;;14.52;2.67;;;16.50;99.90;;;;;;5013055;28;20034;-70
2022/05/27 10:54:11;;;;;;;11.05;2.20;;;16.20;99.90;;;;;;5013145;28;20068;-71
2022/05/27 11:03:13;;;;;;;9.85;2.20;;;16.00;99.90;;;;;;5062134;28;20051;-70
2022/05/27 11:05:57;;;;;;;9.52;2.20;;;15.70;99.90;;;;;;5069225;28;20045;-71
2022/05/27 11:08:30;;;;;;;6.45;1.80;;;16.10;99.90;;;;;;5052620;28;20073;-73
2022/05/27 11:11:01;;;;;;;9.00;2.38;;;15.70;99.90;;;;;;5068939;28;20051;-70
2022/05/27 11:16:39;;;;;;;10.03;2.23;;;15.30;99.90;;;;;;5069681;28;20076;-71
2022/05/27 11:19:30;;;;;;;9.18;2.42;;;15.00;99.90;;;;;;5052517;28;20282;-71
2022/05/27 11:22:10;;;;;;;6.75;1.88;;;16.00;99.90;;;;;;5068681;28;20052;-72
2022/05/27 11:24:50;;;;;;;8.55;1.92;;;16.30;99.90;;;;;;5068767;28;20045;-72
2022/05/27 11:27:48;;;;;;;9.02;2.40;;;16.00;99.90;;;;;;5068296;28;20370;-72
2022/05/27 11:30:48;;;;;;;8.85;2.40;;;15.80;99.90;;;;;;5052549;28;20415;-71
2022/05/27 11:33:41;;;;;;;8.75;1.90;;;15.50;99.90;;;;;;5069199;28;20079;-71
2022/05/27 11:36:30;;;;;;;13.68;2.90;;;16.20;99.90;;;;;;5052466;28;20033;-70
2022/05/27 11:39:27;;;;;;;13.73;2.58;;;16.00;99.90;;;;;;5048838;28;20382;-70
2022/05/27 11:42:01;;;;;;;8.65;2.40;;;15.70;99.90;;;;;;5048463;28;20558;-71
2022/05/27 11:44:48;;;;;;;8.80;2.38;;;16.00;99.90;;;;;;5031671;28;20477;-70
2022/05/27 11:47:39;;;;;;;9.15;2.25;;;15.90;99.90;;;;;;5048840;28;20033;-71
2022/05/27 11:50:31;;;;;;;7.80;2.25;;;16.30;99.90;;;;;;5032321;28;20396;-71
2022/05/27 11:53:21;;;;;;;8.75;2.50;;;16.20;99.90;;;;;;5047792;28;20127;-72
2022/05/27 11:55:59;;;;;;;8.07;2.40;;;15.80;99.90;;;;;;5031828;28;20056;-71
2022/05/27 11:58:50;;;;;;;11.52;2.50;;;15.70;99.90;;;;;;5032018;28;20052;-73
2022/05/27 12:01:35;;;;;;;7.65;2.65;;;15.30;99.90;;;;;;5048420;28;20040;-71
2022/05/27 12:04:12;;;;;;;17.20;2.50;;;14.70;99.90;;;;;;5048348;28;20094;-73
2022/05/27 12:07:16;;;;;;;10.98;2.47;;;14.60;99.90;;;;;;5048147;28;20465;-73
2022/05/27 12:09:49;;;;;;;8.27;2.17;;;14.50;99.90;;;;;;5047747;28;20774;-73
2022/05/27 12:12:25;;;;;;;9.02;2.50;;;14.50;99.90;;;;;;5048674;28;20401;-73
2022/05/27 12:15:09;;;;;;;8.05;2.38;;;14.80;99.90;;;;;;5031503;28;20036;-72
2022/05/27 12:17:43;;;;;;;8.55;2.22;;;14.50;99.90;;;;;;5047967;28;20041;-72
2022/05/27 12:20:12;;;;;;;11.88;2.75;;;14.50;99.90;;;;;;5032051;28;20131;-72
2022/05/27 12:22:40;;;;;;;8.98;2.08;;;15.20;99.90;;;;;;5048017;28;20084;-72
2022/05/27 12:25:14;;;;;;;10.52;2.28;;;15.50;99.90;;;;;;5048269;28;20087;-74
2022/05/27 12:27:40;;;;;;;8.43;2.67;;;15.60;99.90;;;;;;5031101;28;20052;-72
2022/05/27 12:30:09;;;;;;;11.45;2.30;;;15.30;99.90;;;;;;5031845;28;20556;-73
2022/05/27 12:32:39;;;;;;;6.72;1.95;;;14.90;99.90;;;;;;5031016;28;20041;-71
2022/05/27 12:35:32;;;;;;;10.13;2.63;;;14.70;99.90;;;;;;5031652;28;20075;-71
2022/05/27 12:38:00;;;;;;;10.20;2.42;;;15.70;99.90;;;;;;5049592;28;20127;-71
2022/05/27 12:40:49;;;;;;;13.30;3.00;;;15.40;99.90;;;;;;5035468;28;20033;-72
2022/05/27 12:43:20;;;;;;;8.40;2.50;;;15.80;99.90;;;;;;5035615;28;20041;-71
2022/05/27 12:45:52;;;;;;;7.82;2.20;;;16.80;99.90;;;;;;5051300;28;20029;-72
2022/05/27 12:48:41;;;;;;;15.30;3.03;;;15.60;99.90;;;;;;5052325;28;20434;-73
2022/05/27 12:51:09;;;;;;;13.18;3.00;;;16.00;99.90;;;;;;5051775;28;20120;-72
2022/05/27 12:53:51;;;;;;;8.60;2.47;;;16.20;99.90;;;;;;5051250;28;20509;-72
2022/05/27 13:02:21;;;;;;;10.60;2.30;;;15.00;99.90;;;;;;5051870;28;20079;-74
2022/05/27 13:04:56;;;;;;;11.68;2.90;;;14.80;99.90;;;;;;5051243;28;20045;-73
2022/05/27 13:07:28;;;;;;;7.50;2.63;;;14.80;99.90;;;;;;5051901;28;20131;-70
2022/05/27 13:09:55;;;;;;;10.10;2.55;;;15.60;99.90;;;;;;5051232;28;20064;-72
2022/05/27 13:12:48;;;;;;;8.65;2.17;;;15.80;99.90;;;;;;5035165;28;20037;-71
2022/05/27 13:15:20;;;;;;;6.63;2.00;;;15.50;99.90;;;;;;5051792;28;20048;-72
2022/05/27 13:18:10;;;;;;;8.73;2.28;;;15.80;99.90;;;;;;5050930;28;20072;-72
2022/05/27 13:20:54;;;;;;;10.77;2.67;;;15.80;99.90;;;;;;5043544;28;20512;-70
2022/05/27 13:23:25;;;;;;;10.70;2.40;;;16.50;99.90;;;;;;5034923;28;20045;-74
2022/05/27 13:26:17;;;;;;;9.02;2.10;;;16.30;99.90;;;;;;5043139;28;20045;-71
2022/05/27 13:29:22;;;;;;;12.15;2.42;;;16.30;99.90;;;;;;5030614;28;20041;-73
2022/05/27 13:31:51;;;;;;;9.68;2.75;;;17.10;99.90;;;;;;5030802;28;20045;-73
2022/05/27 13:34:24;;;;;;;9.43;1.92;;;16.30;99.90;;;;;;5031333;28;20387;-71
2022/05/27 13:36:51;;;;;;;8.18;2.95;;;16.40;99.90;;;;;;5030161;28;20049;-73
2022/05/27 13:39:40;;;;;;;9.57;2.28;;;16.20;99.90;;;;;;5030987;28;20041;-70
2022/05/27 13:42:11;;;;;;;11.85;2.38;;;15.90;99.90;;;;;;5014141;28;20377;-72
2022/05/27 13:44:40;;;;;;;9.27;2.50;;;15.40;99.90;;;;;;5030432;28;20132;-71
2022/05/27 13:47:12;;;;;;;11.65;2.28;;;15.90;99.90;;;;;;5030276;28;20061;-72
2022/05/27 13:49:41;;;;;;;13.15;2.70;;;15.60;99.90;;;;;;5028923;28;20049;-74